Time;durP1;ratioP1;P1;durP2;ratioP2;P2;SDS_P1;SDS_P2;PMS_P1;PMS_P2;Temp;Humidity;BMP_temperature;BMP_pressure;BME280_temperature;BME280_humidity;BME280_pressure;Samples;Min_cycle;Max_cycle;Signal;HPM_P1;HPM_P2
2024/03/03 00:01:09;;;;;;;7.30;3.63;;;;;;;9.70;100.00;69474.22;5052075;28;20119;-52
2024/03/03 00:03:37;;;;;;;6.65;3.53;;;;;;;9.73;100.00;69480.31;5052398;28;20482;-52
2024/03/03 00:06:06;;;;;;;7.95;3.72;;;;;;;9.73;100.00;69474.53;5048096;28;20053;-50
2024/03/03 00:08:36;;;;;;;6.63;2.95;;;;;;;9.72;100.00;69478.56;5049008;28;20045;-49
2024/03/03 00:11:04;;;;;;;7.55;3.63;;;;;;;9.79;100.00;69484.72;5052025;28;20076;-52
2024/03/03 00:13:33;;;;;;;7.50;3.60;;;;;;;9.79;100.00;69487.31;5052179;28;20063;-50
2024/03/03 00:16:05;;;;;;;8.30;3.70;;;;;;;9.75;100.00;69480.03;5051957;28;20107;-53
2024/03/03 00:18:37;;;;;;;7.63;3.50;;;;;;;9.80;100.00;69485.28;5052186;28;20426;-52
2024/03/03 00:21:12;;;;;;;8.43;3.83;;;;;;;9.85;100.00;69493.72;5050415;28;20053;-49
2024/03/03 00:23:41;;;;;;;8.30;4.20;;;;;;;9.83;100.00;69491.41;5051881;28;20040;-51
2024/03/03 00:26:09;;;;;;;7.53;3.85;;;;;;;9.85;100.00;69490.53;5051631;28;20052;-50
2024/03/03 00:28:37;;;;;;;7.93;3.50;;;;;;;9.84;100.00;69489.94;5051753;28;20059;-51
2024/03/03 00:31:06;;;;;;;8.68;4.35;;;;;;;9.76;100.00;69480.63;5051847;28;20128;-49
2024/03/03 00:33:35;;;;;;;8.00;4.25;;;;;;;9.77;100.00;69481.78;5050719;28;20496;-47
2024/03/03 00:36:05;;;;;;;8.63;4.38;;;;;;;9.76;100.00;69483.81;5052006;28;20375;-49
2024/03/03 00:38:34;;;;;;;8.07;4.07;;;;;;;9.73;100.00;69477.69;5051970;28;20060;-53
2024/03/03 00:41:02;;;;;;;6.53;3.70;;;;;;;9.68;100.00;69473.91;5051716;28;20127;-48
2024/03/03 00:43:31;;;;;;;7.90;4.13;;;;;;;9.67;100.00;69472.72;5051637;28;20099;-48
2024/03/03 00:45:59;;;;;;;8.48;4.43;;;;;;;9.59;100.00;69459.34;5052012;28;20526;-53
2024/03/03 00:48:31;;;;;;;7.93;4.18;;;;;;;9.52;100.00;69453.22;5055433;28;20056;-48
2024/03/03 00:51:01;;;;;;;8.13;4.13;;;;;;;9.49;100.00;69452.91;5053114;28;20072;-52
2024/03/03 00:53:32;;;;;;;9.00;4.13;;;;;;;9.49;100.00;69452.91;5050918;28;20045;-50
2024/03/03 00:56:00;;;;;;;7.60;3.95;;;;;;;9.44;100.00;69447.09;5053788;28;20053;-52
2024/03/03 00:58:28;;;;;;;8.48;4.70;;;;;;;9.42;100.00;69444.75;5055385;28;20891;-48
2024/03/03 01:00:56;;;;;;;11.43;4.82;;;;;;;9.44;100.00;69450.25;5055493;28;20342;-62
2024/03/03 01:03:24;;;;;;;7.53;4.03;;;;;;;9.45;100.00;69451.44;5053897;28;20140;-51
2024/03/03 01:05:54;;;;;;;8.02;4.43;;;;;;;9.43;100.00;69445.91;5055152;28;20056;-50
2024/03/03 01:08:22;;;;;;;8.40;4.32;;;;;;;9.43;100.00;69446.47;5053628;28;20045;-52
2024/03/03 01:10:50;;;;;;;8.75;4.45;;;;;;;9.40;100.00;69442.41;5054705;28;20056;-52
2024/03/03 01:13:19;;;;;;;7.88;4.53;;;;;;;9.36;100.00;69429.94;5052843;28;20049;-51
2024/03/03 01:15:47;;;;;;;8.90;4.78;;;;;;;9.36;100.00;69432.53;5049733;28;20559;-52
2024/03/03 01:18:15;;;;;;;8.75;4.90;;;;;;;9.31;100.00;69432.50;5052881;28;20045;-48
2024/03/03 01:20:44;;;;;;;11.65;5.65;;;;;;;9.26;100.00;69429.84;5054691;28;20064;-51
2024/03/03 01:23:14;;;;;;;9.88;5.05;;;;;;;9.35;100.00;69433.97;5051117;28;20080;-51
2024/03/03 01:25:43;;;;;;;9.25;4.90;;;;;;;9.36;100.00;69437.75;5050704;28;20065;-52
2024/03/03 01:28:11;;;;;;;9.20;5.05;;;;;;;9.32;100.00;69433.66;5052075;28;20041;-53
2024/03/03 01:30:40;;;;;;;9.07;5.07;;;;;;;9.30;100.00;69426.72;5054834;28;20049;-53
2024/03/03 01:33:08;;;;;;;9.48;5.35;;;;;;;9.33;100.00;69434.25;5055043;28;20052;-49
2024/03/03 01:35:36;;;;;;;10.88;5.18;;;;;;;9.31;100.00;69429.88;5051783;28;20048;-51
2024/03/03 01:38:08;;;;;;;10.60;5.30;;;;;;;9.28;100.00;69429.00;5051855;28;20040;-51
2024/03/03 01:40:38;;;;;;;9.13;5.07;;;;;;;9.28;100.00;69424.38;5054726;28;20076;-51
2024/03/03 01:43:07;;;;;;;9.90;5.47;;;;;;;9.34;100.00;69433.41;5053435;28;20083;-52
2024/03/03 01:45:36;;;;;;;12.20;5.57;;;;;;;9.29;100.00;69425.53;5054637;28;20063;-51
2024/03/03 01:48:08;;;;;;;11.45;5.43;;;;;;;9.33;100.00;69429.63;5054294;28;20037;-52
2024/03/03 01:50:38;;;;;;;11.27;5.95;;;;;;;9.33;100.00;69434.25;5054494;28;20048;-50
2024/03/03 01:53:07;;;;;;;11.80;5.78;;;;;;;9.32;100.00;69433.66;5054048;28;20455;-51
2024/03/03 01:55:37;;;;;;;11.32;5.72;;;;;;;9.33;100.00;69432.22;5054131;28;20404;-50
2024/03/03 01:58:06;;;;;;;10.60;5.47;;;;;;;9.30;100.00;69428.75;5053029;28;20045;-51
2024/03/03 02:00:35;;;;;;;12.02;6.13;;;;;;;9.24;100.00;69422.34;5054081;28;20091;-48
2024/03/03 02:03:08;;;;;;;9.02;5.78;;;;;;;9.22;100.00;69425.19;5049875;28;20049;-62
2024/03/03 02:05:37;;;;;;;11.95;6.32;;;;;;;9.21;100.00;69420.84;5051871;28;20059;-63
2024/03/03 02:08:06;;;;;;;11.68;5.75;;;;;;;9.17;100.00;69416.75;5050731;28;20072;-62
2024/03/03 02:10:35;;;;;;;11.13;5.80;;;;;;;9.25;100.00;69426.09;5050585;28;20131;-62
2024/03/03 02:13:05;;;;;;;10.98;5.78;;;;;;;9.24;100.00;69424.94;5048661;28;20051;-62
2024/03/03 02:15:33;;;;;;;9.77;5.78;;;;;;;9.23;100.00;69423.75;5050504;28;20049;-62
2024/03/03 02:18:01;;;;;;;10.20;5.72;;;;;;;9.23;100.00;69423.75;5049763;28;20037;-62
2024/03/03 02:20:30;;;;;;;10.23;5.65;;;;;;;9.16;100.00;69415.59;5051947;28;20049;-62
2024/03/03 02:23:02;;;;;;;9.98;5.30;;;;;;;9.13;100.00;69406.88;5053825;28;20075;-63
2024/03/03 02:25:30;;;;;;;11.10;5.65;;;;;;;9.07;100.00;69405.09;5053736;28;20045;-61
2024/03/03 02:27:58;;;;;;;10.38;5.03;;;;;;;9.06;100.00;69401.34;5052411;28;20041;-63
2024/03/03 02:30:26;;;;;;;10.82;5.43;;;;;;;9.00;100.00;69394.94;5050618;28;20050;-62
2024/03/03 02:32:55;;;;;;;11.23;5.75;;;;;;;8.91;100.00;69387.59;5049037;28;20041;-62
2024/03/03 02:35:23;;;;;;;8.82;5.25;;;;;;;8.86;100.00;69376.00;5049105;28;20049;-63
2024/03/03 02:37:51;;;;;;;9.90;5.53;;;;;;;8.82;100.00;69377.13;5049868;28;20230;-63
2024/03/03 02:40:20;;;;;;;9.73;5.68;;;;;;;8.76;100.00;69365.50;5049799;28;20049;-63
2024/03/03 02:42:49;;;;;;;8.73;5.07;;;;;;;8.68;100.00;69358.78;5053535;28;20561;-63
2024/03/03 02:45:17;;;;;;;8.80;5.32;;;;;;;8.62;100.00;69354.97;5053286;28;20092;-62
2024/03/03 02:47:48;;;;;;;10.20;5.68;;;;;;;8.55;100.00;69343.63;5053431;28;20044;-63
2024/03/03 02:50:16;;;;;;;9.70;5.57;;;;;;;8.50;100.00;69337.81;5050494;28;20445;-62
2024/03/03 02:52:44;;;;;;;9.05;5.35;;;;;;;8.40;100.00;69329.34;5049917;28;20095;-63
2024/03/03 02:55:12;;;;;;;10.18;5.72;;;;;;;8.34;100.00;69319.72;5052395;28;20174;-62
2024/03/03 02:57:42;;;;;;;9.35;5.50;;;;;;;8.30;100.00;69320.84;5049255;28;20131;-62
2024/03/03 03:00:12;;;;;;;8.82;5.10;;;;;;;8.27;100.00;69312.72;5050575;28;20380;-62
2024/03/03 03:02:40;;;;;;;9.32;5.22;;;;;;;8.25;100.00;69310.41;5050854;28;20056;-51
2024/03/03 03:05:09;;;;;;;10.38;5.50;;;;;;;8.27;100.00;69312.72;5049469;28;20052;-50
2024/03/03 03:07:37;;;;;;;9.27;5.35;;;;;;;8.27;100.00;69310.13;5053137;28;20123;-49
2024/03/03 03:10:07;;;;;;;9.70;4.95;;;;;;;8.21;100.00;69305.75;5052674;28;20045;-63
2024/03/03 03:12:35;;;;;;;7.93;4.68;;;;;;;8.19;100.00;69306.00;5050551;28;20533;-62
2024/03/03 03:15:06;;;;;;;9.05;5.05;;;;;;;8.17;100.00;69301.09;5048406;28;20519;-62
2024/03/03 03:17:34;;;;;;;8.82;5.05;;;;;;;8.18;100.00;69301.66;5051865;28;20056;-62
2024/03/03 03:20:04;;;;;;;9.82;5.05;;;;;;;8.18;100.00;69301.66;5049110;28;20049;-63
2024/03/03 03:22:32;;;;;;;8.52;5.38;;;;;;;8.12;100.00;69295.25;5049925;28;20412;-62
2024/03/03 03:25:01;;;;;;;8.73;4.70;;;;;;;8.04;100.00;69288.53;5052530;28;20053;-62
2024/03/03 03:27:29;;;;;;;9.30;5.32;;;;;;;8.00;100.00;69281.28;5052606;28;20076;-62
2024/03/03 03:29:57;;;;;;;8.73;5.10;;;;;;;7.90;100.00;69268.19;5052448;28;20048;-62
2024/03/03 03:32:27;;;;;;;10.02;5.57;;;;;;;7.85;100.00;69261.81;5048436;28;20053;-51
2024/03/03 03:34:55;;;;;;;10.00;5.40;;;;;;;7.80;100.00;69261.78;5049401;28;20094;-50
2024/03/03 03:37:23;;;;;;;10.05;5.05;;;;;;;7.75;100.00;69253.34;5051084;28;20072;-51
2024/03/03 03:39:52;;;;;;;9.05;5.43;;;;;;;7.74;100.00;69254.78;5052268;28;20499;-49
2024/03/03 03:42:22;;;;;;;9.07;5.32;;;;;;;7.72;100.00;69253.03;5052147;28;20055;-48
2024/03/03 03:44:51;;;;;;;10.40;5.55;;;;;;;7.68;100.00;69250.97;5051609;28;20084;-51
2024/03/03 03:47:19;;;;;;;9.48;4.90;;;;;;;7.64;100.00;69245.72;5048341;28;20045;-48
2024/03/03 03:49:48;;;;;;;10.27;5.15;;;;;;;7.57;100.00;69233.53;5049350;28;20087;-53
2024/03/03 03:52:16;;;;;;;9.02;4.82;;;;;;;7.55;100.00;69231.22;5051883;28;20045;-49
2024/03/03 03:54:45;;;;;;;9.90;5.93;;;;;;;7.54;100.00;69227.47;5049133;28;20076;-53
2024/03/03 03:57:17;;;;;;;9.48;5.20;;;;;;;7.51;100.00;69229.16;5047989;28;20566;-52
2024/03/03 03:59:45;;;;;;;9.40;5.22;;;;;;;7.48;100.00;69223.06;5051992;28;20045;-51
2024/03/03 04:02:13;;;;;;;9.10;5.40;;;;;;;7.48;100.00;69230.84;5051812;28;20045;-52
2024/03/03 04:04:41;;;;;;;8.93;5.28;;;;;;;7.44;100.00;69221.00;5052044;28;20569;-52
2024/03/03 04:07:11;;;;;;;9.48;4.95;;;;;;;7.39;100.00;69215.16;5051909;28;20045;-53
2024/03/03 04:09:40;;;;;;;11.13;6.15;;;;;;;7.38;100.00;69211.44;5052018;28;20049;-52
2024/03/03 04:12:08;;;;;;;8.68;5.38;;;;;;;7.36;100.00;69211.69;5051990;28;20041;-53
2024/03/03 04:14:36;;;;;;;9.55;5.60;;;;;;;7.35;100.00;69213.72;5051934;28;20040;-50
2024/03/03 04:17:05;;;;;;;9.13;5.28;;;;;;;7.34;100.00;69209.94;5051675;28;20534;-51
2024/03/03 04:19:33;;;;;;;11.13;5.53;;;;;;;7.33;100.00;69208.78;5050280;28;20060;-62
2024/03/03 04:22:02;;;;;;;10.43;5.78;;;;;;;7.32;100.00;69207.03;5053148;28;20045;-62
2024/03/03 04:24:32;;;;;;;11.00;6.07;;;;;;;7.32;100.00;69209.63;5055904;28;20542;-62
2024/03/03 04:27:00;;;;;;;9.95;5.55;;;;;;;7.38;100.00;69214.59;5054544;28;20067;-62
2024/03/03 04:29:28;;;;;;;10.57;6.20;;;;;;;7.32;100.00;69204.44;5056101;28;20045;-63
2024/03/03 04:31:56;;;;;;;10.00;5.82;;;;;;;7.30;100.00;69205.28;5055811;28;20515;-62
2024/03/03 04:34:26;;;;;;;10.65;6.15;;;;;;;7.32;100.00;69202.44;5054417;28;20106;-62
2024/03/03 04:36:55;;;;;;;9.80;5.97;;;;;;;7.25;100.00;69200.06;5054352;28;20044;-62
2024/03/03 04:39:23;;;;;;;10.32;6.03;;;;;;;7.35;100.00;69213.13;5050567;28;20060;-63
2024/03/03 04:41:53;;;;;;;9.25;6.05;;;;;;;7.26;100.00;69198.59;5053242;28;20072;-62
2024/03/03 04:44:21;;;;;;;10.82;5.93;;;;;;;7.21;100.00;69192.22;5055601;28;20053;-62
2024/03/03 04:46:51;;;;;;;10.23;6.07;;;;;;;7.17;100.00;69190.75;5053030;28;20098;-62
2024/03/03 04:49:20;;;;;;;10.20;5.93;;;;;;;7.16;100.00;69188.97;5052182;28;20053;-62
2024/03/03 04:51:48;;;;;;;9.88;5.93;;;;;;;7.14;100.00;69186.66;5051927;28;20106;-61
2024/03/03 04:54:19;;;;;;;11.30;5.90;;;;;;;7.16;100.00;69186.38;5051582;28;20044;-62
2024/03/03 04:56:47;;;;;;;9.55;5.85;;;;;;;7.10;100.00;69180.59;5051670;28;20037;-61
2024/03/03 04:59:19;;;;;;;10.52;5.82;;;;;;;7.11;100.00;69183.75;5053877;28;20048;-62
2024/03/03 05:01:47;;;;;;;9.60;5.72;;;;;;;7.11;100.00;69183.75;5055216;28;20060;-62
2024/03/03 05:04:16;;;;;;;12.07;5.80;;;;;;;7.06;100.00;69178.53;5051110;28;20586;-63
2024/03/03 05:06:44;;;;;;;10.50;6.30;;;;;;;7.08;100.00;69180.25;5052472;28;20045;-62
2024/03/03 05:09:13;;;;;;;10.32;5.88;;;;;;;7.06;100.00;69175.34;5055323;28;20128;-62
2024/03/03 05:11:41;;;;;;;11.52;6.10;;;;;;;7.05;100.00;69177.34;5052855;28;20205;-62
2024/03/03 05:14:09;;;;;;;10.32;6.07;;;;;;;7.04;100.00;69170.41;5050878;28;20064;-62
2024/03/03 05:16:39;;;;;;;11.48;6.07;;;;;;;7.01;100.00;69172.69;5053734;28;20045;-62
2024/03/03 05:19:08;;;;;;;11.65;6.05;;;;;;;7.02;100.00;69168.09;5055004;28;20045;-62
2024/03/03 05:21:37;;;;;;;10.30;6.53;;;;;;;7.08;100.00;69178.25;5054779;28;20045;-62
2024/03/03 05:24:06;;;;;;;10.32;5.82;;;;;;;7.04;100.00;69178.78;5054982;28;20552;-62
2024/03/03 05:26:34;;;;;;;10.05;6.20;;;;;;;7.00;100.00;69168.38;5054300;28;20044;-62
2024/03/03 05:29:05;;;;;;;10.88;6.40;;;;;;;6.97;100.00;69159.66;5049468;28;20044;-62
2024/03/03 05:31:39;;;;;;;11.02;7.20;;;;;;;6.96;100.00;69161.13;5051542;28;20099;-62
2024/03/03 05:34:12;;;;;;;10.27;6.13;;;;;;;6.94;100.00;69167.16;5054489;28;20122;-62
2024/03/03 05:36:41;;;;;;;10.38;5.82;;;;;;;6.93;100.00;69163.97;5054857;28;20045;-62
2024/03/03 05:39:10;;;;;;;11.32;6.68;;;;;;;6.91;100.00;69161.66;5054727;28;20044;-62
2024/03/03 05:41:38;;;;;;;12.57;6.72;;;;;;;6.87;100.00;69151.81;5053867;28;20053;-62
2024/03/03 05:44:07;;;;;;;11.40;6.45;;;;;;;6.85;100.00;69154.09;5050031;28;20522;-62
2024/03/03 05:46:35;;;;;;;11.07;5.93;;;;;;;6.84;100.00;69153.47;5052026;28;20546;-60
2024/03/03 05:49:04;;;;;;;11.43;6.32;;;;;;;6.84;100.00;69145.13;5054600;28;20124;-62
2024/03/03 05:51:33;;;;;;;10.75;6.03;;;;;;;6.82;100.00;69151.16;5054665;28;20565;-62
2024/03/03 05:54:02;;;;;;;11.68;6.13;;;;;;;6.80;100.00;69145.66;5054226;28;20040;-62
2024/03/03 05:56:30;;;;;;;11.30;6.03;;;;;;;6.78;100.00;69146.50;5054515;28;20124;-62
2024/03/03 05:58:59;;;;;;;10.00;5.35;;;;;;;6.76;100.00;69142.19;5052672;28;20834;-62
2024/03/03 06:01:29;;;;;;;10.68;6.18;;;;;;;6.73;100.00;69140.69;5050776;28;20083;-63
2024/03/03 06:03:57;;;;;;;10.60;6.40;;;;;;;6.72;100.00;69140.13;5049512;28;20523;-49
2024/03/03 06:06:27;;;;;;;11.48;6.47;;;;;;;6.71;100.00;69138.38;5051143;28;20045;-51
2024/03/03 06:08:57;;;;;;;11.65;6.55;;;;;;;6.72;100.00;69139.53;5051822;28;20088;-50
2024/03/03 06:11:25;;;;;;;9.73;6.28;;;;;;;6.70;100.00;69135.19;5050953;28;20047;-50
2024/03/03 06:13:54;;;;;;;10.55;5.90;;;;;;;6.70;100.00;69134.63;5049504;28;20703;-51
2024/03/03 06:16:22;;;;;;;11.10;6.45;;;;;;;6.73;100.00;69140.69;5052949;28;20045;-52
2024/03/03 06:18:50;;;;;;;11.73;6.63;;;;;;;6.74;100.00;69142.44;5053671;28;20553;-52
2024/03/03 06:21:18;;;;;;;11.27;6.43;;;;;;;6.78;100.00;69141.31;5053293;28;20065;-49
2024/03/03 06:23:46;;;;;;;10.60;6.40;;;;;;;6.79;100.00;69142.50;5053487;28;20128;-62
2024/03/03 06:26:16;;;;;;;10.82;6.22;;;;;;;6.83;100.00;69149.75;5053871;28;20037;-51
2024/03/03 06:28:45;;;;;;;10.20;6.03;;;;;;;6.82;100.00;69150.59;5053845;28;20037;-48
2024/03/03 06:31:13;;;;;;;10.77;6.20;;;;;;;6.81;100.00;69150.00;5053794;28;20041;-60
2024/03/03 06:33:42;;;;;;;12.95;6.97;;;;;;;6.84;100.00;69153.47;5053351;28;20408;-60
2024/03/03 06:36:16;;;;;;;11.38;6.95;;;;;;;6.85;100.00;69154.66;5053739;28;20090;-50
2024/03/03 06:38:44;;;;;;;13.98;7.10;;;;;;;6.85;100.00;69151.47;5054036;28;20052;-62
2024/03/03 06:41:13;;;;;;;11.05;6.45;;;;;;;6.89;100.00;69156.72;5051268;28;20443;-48
2024/03/03 06:43:43;;;;;;;11.48;6.95;;;;;;;6.89;100.00;69159.31;5046949;28;20102;-50
2024/03/03 06:46:12;;;;;;;11.10;6.43;;;;;;;6.90;100.00;69163.06;5051003;28;20140;-61
2024/03/03 06:48:40;;;;;;;13.27;7.10;;;;;;;7.01;100.00;69169.50;5052733;28;20124;-62
2024/03/03 06:51:11;;;;;;;11.23;6.95;;;;;;;7.00;100.00;69166.34;5053318;28;20041;-62
2024/03/03 06:53:39;;;;;;;10.77;6.75;;;;;;;6.99;100.00;69169.78;5053319;28;20544;-62
2024/03/03 06:56:14;;;;;;;11.57;6.80;;;;;;;7.02;100.00;69171.28;5053374;28;20489;-61
2024/03/03 06:58:46;;;;;;;11.45;6.85;;;;;;;7.03;100.00;69175.00;5053420;28;20131;-61
2024/03/03 07:01:14;;;;;;;11.82;7.07;;;;;;;7.03;100.00;69174.44;5053494;28;20068;-48
2024/03/03 07:06:29;;;;;;;14.80;6.95;;;;;;;7.05;100.00;69174.19;5052986;28;20404;-50
2024/03/03 07:09:00;;;;;;;12.60;7.22;;;;;;;7.07;100.00;69177.06;5052907;28;20079;-52
2024/03/03 07:11:28;;;;;;;11.98;6.97;;;;;;;7.12;100.00;69184.91;5052800;28;20119;-52
2024/03/03 07:13:58;;;;;;;11.70;7.40;;;;;;;7.10;100.00;69178.00;5052711;28;20072;-51
2024/03/03 07:16:26;;;;;;;14.35;7.85;;;;;;;7.18;100.00;69191.31;5052902;28;20124;-48
2024/03/03 07:18:54;;;;;;;11.80;7.55;;;;;;;7.18;100.00;69189.31;5051330;28;20041;-51
2024/03/03 07:21:22;;;;;;;13.38;7.88;;;;;;;7.16;100.00;69191.56;5052294;28;20136;-53
2024/03/03 07:23:50;;;;;;;11.27;7.28;;;;;;;7.17;100.00;69188.16;5052523;28;20049;-50
2024/03/03 07:26:19;;;;;;;12.95;7.70;;;;;;;7.18;100.00;69188.72;5052705;28;20065;-50
2024/03/03 07:28:47;;;;;;;12.20;7.25;;;;;;;7.18;100.00;69191.91;5052479;28;20045;-53
2024/03/03 07:31:16;;;;;;;12.13;7.30;;;;;;;7.18;100.00;69191.91;5052674;28;20041;-51
2024/03/03 07:33:44;;;;;;;12.38;7.65;;;;;;;7.26;100.00;69195.44;5052931;28;20477;-51
2024/03/03 07:36:13;;;;;;;13.10;7.10;;;;;;;7.27;100.00;69196.59;5052337;28;20063;-51
2024/03/03 07:38:41;;;;;;;11.85;7.05;;;;;;;7.30;100.00;69204.72;5052355;28;20049;-49
2024/03/03 07:41:09;;;;;;;12.20;7.30;;;;;;;7.33;100.00;69213.38;5052075;28;20080;-51
2024/03/03 07:43:40;;;;;;;12.25;7.50;;;;;;;7.35;100.00;69211.13;5052102;28;20154;-51
2024/03/03 07:46:08;;;;;;;12.48;7.43;;;;;;;7.34;100.00;69204.19;5052091;28;20522;-52
2024/03/03 07:48:37;;;;;;;13.80;7.55;;;;;;;7.35;100.00;69205.31;5052173;28;20090;-49
2024/03/03 07:51:07;;;;;;;11.43;7.18;;;;;;;7.36;100.00;69209.69;5052152;28;20064;-50
2024/03/03 07:53:35;;;;;;;13.95;7.97;;;;;;;7.36;100.00;69217.47;5049270;28;20048;-52
2024/03/03 07:56:04;;;;;;;11.27;7.82;;;;;;;7.38;100.00;69211.44;5046545;28;20139;-52
2024/03/03 07:58:36;;;;;;;11.93;6.93;;;;;;;7.38;100.00;69217.19;5050536;28;20441;-53
2024/03/03 08:01:05;;;;;;;13.80;7.85;;;;;;;7.40;100.00;69218.94;5051937;28;20053;-51
2024/03/03 08:03:34;;;;;;;11.77;7.07;;;;;;;7.44;100.00;69218.41;5048471;28;20053;-52
2024/03/03 08:06:04;;;;;;;14.18;7.45;;;;;;;7.47;100.00;69227.09;5049263;28;20459;-54
2024/03/03 08:08:32;;;;;;;12.48;7.47;;;;;;;7.51;100.00;69229.16;5051702;28;20044;-52
2024/03/03 08:11:01;;;;;;;10.73;7.30;;;;;;;7.55;100.00;69233.22;5051728;28;20041;-52
2024/03/03 08:13:29;;;;;;;13.82;7.25;;;;;;;7.64;100.00;69243.13;5051860;28;20124;-51
2024/03/03 08:15:57;;;;;;;12.73;7.63;;;;;;;7.70;100.00;69247.50;5051814;28;20041;-54
2024/03/03 08:18:25;;;;;;;13.88;8.15;;;;;;;7.76;100.00;69254.50;5051881;28;20040;-53
2024/03/03 08:20:53;;;;;;;14.85;8.20;;;;;;;7.84;100.00;69263.81;5051684;28;20226;-53
2024/03/03 08:23:23;;;;;;;11.27;7.32;;;;;;;7.95;100.00;69279.22;5051755;28;20423;-51
2024/03/03 08:25:51;;;;;;;11.10;7.55;;;;;;;7.99;100.00;69280.13;5051541;28;20059;-49
2024/03/03 08:28:19;;;;;;;13.07;8.20;;;;;;;8.01;100.00;69285.63;5051280;28;20045;-49
2024/03/03 08:30:50;;;;;;;12.13;7.72;;;;;;;8.09;100.00;69289.19;5051514;28;20407;-50
2024/03/03 08:33:19;;;;;;;12.73;7.50;;;;;;;8.28;100.00;69313.31;5051447;28;20126;-52
2024/03/03 08:35:47;;;;;;;14.40;8.20;;;;;;;8.35;100.00;69318.88;5051189;28;20045;-52
2024/03/03 08:38:15;;;;;;;12.27;7.47;;;;;;;8.40;100.00;69327.31;5051522;28;20492;-52
2024/03/03 08:40:45;;;;;;;13.68;8.30;;;;;;;8.51;100.00;69339.56;5047827;28;20060;-50
2024/03/03 08:43:13;;;;;;;12.43;7.82;;;;;;;8.62;100.00;69354.97;5048260;28;20052;-53
2024/03/03 08:45:42;;;;;;;12.85;7.97;;;;;;;8.75;100.00;69369.56;5051714;28;20065;-49
2024/03/03 08:48:10;;;;;;;12.93;7.90;;;;;;;8.86;100.00;69381.81;5051513;28;20473;-48
2024/03/03 08:50:38;;;;;;;13.18;7.85;;;;;;;8.96;100.00;69387.66;5051590;28;20425;-50
2024/03/03 08:53:09;;;;;;;14.43;8.00;;;;;;;9.09;100.00;69407.44;5051425;28;20053;-49
2024/03/03 08:55:37;;;;;;;13.40;8.32;;;;;;;9.21;100.00;69418.25;5051739;28;20057;-50
2024/03/03 08:58:06;;;;;;;14.13;8.13;;;;;;;9.34;100.00;69435.41;5051434;28;20431;-51
2024/03/03 09:00:35;;;;;;;15.90;8.35;;;;;;;9.51;100.00;69450.03;5051522;28;20041;-53
2024/03/03 09:03:03;;;;;;;14.18;8.32;;;;;;;9.62;100.00;69462.28;5051563;28;20492;-51
2024/03/03 09:05:31;;;;;;;15.10;8.30;;;;;;;9.81;100.00;69487.03;5047913;28;20061;-50
2024/03/03 09:08:00;;;;;;;12.00;8.02;;;;;;;9.96;100.00;69506.56;5050214;28;20052;-49
2024/03/03 09:10:28;;;;;;;15.30;8.80;;;;;;;10.03;100.00;69513.56;5055298;28;20052;-51
2024/03/03 09:12:57;;;;;;;13.63;8.65;;;;;;;10.14;100.00;69523.78;5054941;28;20047;-51
2024/03/03 09:15:27;;;;;;;12.48;7.97;;;;;;;10.23;100.00;69533.72;5054778;28;20045;-52
2024/03/03 09:17:55;;;;;;;12.95;8.13;;;;;;;10.33;100.00;69547.97;5054832;28;20060;-53
2024/03/03 09:20:23;;;;;;;14.73;8.98;;;;;;;10.40;100.00;69556.19;5054560;28;20056;-49
2024/03/03 09:22:52;;;;;;;14.73;9.48;;;;;;;10.49;100.00;69563.50;5051547;28;20049;-52
2024/03/03 09:25:20;;;;;;;14.38;8.43;;;;;;;10.57;100.00;69575.44;5052475;28;20060;-51
2024/03/03 09:27:49;;;;;;;14.30;9.27;;;;;;;10.65;100.00;69578.97;5053466;28;20073;-51
2024/03/03 09:30:17;;;;;;;15.55;9.23;;;;;;;10.75;100.00;69595.28;5054757;28;20102;-52
2024/03/03 09:32:51;;;;;;;14.25;8.90;;;;;;;10.90;100.00;69612.78;5049431;28;20052;-51
2024/03/03 09:35:19;;;;;;;13.68;8.60;;;;;;;11.15;100.00;69640.81;5051872;28;20492;-52
2024/03/03 09:37:49;;;;;;;14.88;9.95;;;;;;;11.28;100.00;69647.56;5053571;28;20156;-49
2024/03/03 09:40:19;;;;;;;14.88;9.50;;;;;;;11.31;100.00;69658.91;5050761;28;20523;-50
2024/03/03 09:42:49;;;;;;;17.73;9.85;;;;;;;11.40;100.00;69668.81;5049251;28;20061;-54
2024/03/03 09:45:20;;;;;;;14.18;9.25;;;;;;;11.49;100.00;69676.72;5050167;28;20052;-51
2024/03/03 09:47:51;;;;;;;15.85;9.88;;;;;;;11.67;100.00;69703.00;5051404;28;20068;-49
2024/03/03 09:50:22;;;;;;;13.88;9.25;;;;;;;11.77;100.00;69705.66;5054583;28;20052;-47
2024/03/03 09:52:53;;;;;;;17.27;10.02;;;;;;;11.81;100.00;69715.56;5052208;28;20142;-51
2024/03/03 09:55:22;;;;;;;19.00;9.77;;;;;;;11.93;100.00;69729.00;5049504;28;20052;-50
2024/03/03 09:57:51;;;;;;;17.35;9.73;;;;;;;12.02;100.00;69738.97;5053524;28;20404;-48
2024/03/03 10:00:20;;;;;;;13.43;8.90;;;;;;;11.98;100.00;69738.06;5054364;28;20051;-49
2024/03/03 10:02:50;;;;;;;16.70;9.65;;;;;;;12.08;100.00;69743.34;5054555;28;20555;-50
2024/03/03 10:05:20;;;;;;;17.77;9.70;;;;;;;12.13;100.00;69749.19;5054154;28;20096;-53
2024/03/03 10:07:53;;;;;;;15.02;9.35;;;;;;;12.17;100.00;69754.47;5054052;28;20448;-52
2024/03/03 10:10:26;;;;;;;16.55;9.57;;;;;;;12.27;100.00;69762.94;5050773;28;20041;-50
2024/03/03 10:12:56;;;;;;;15.30;9.25;;;;;;;12.45;100.00;69785.44;5050605;28;20064;-52
2024/03/03 10:15:24;;;;;;;15.63;9.07;;;;;;;12.61;100.00;69800.91;5052561;28;20048;-50
2024/03/03 10:17:54;;;;;;;14.98;9.70;;;;;;;12.70;100.00;69806.22;5048917;28;20044;-52
2024/03/03 10:20:22;;;;;;;17.50;9.40;;;;;;;12.72;100.00;69815.81;5051633;28;20049;-51
2024/03/03 10:22:53;;;;;;;14.82;9.55;;;;;;;12.74;100.00;69818.16;5053889;28;20083;-51
2024/03/03 10:25:23;;;;;;;14.98;9.90;;;;;;;12.82;100.00;69830.13;5049974;28;20073;-51
2024/03/03 10:27:52;;;;;;;15.80;9.57;;;;;;;13.17;100.00;69862.63;5050886;28;20053;-50
2024/03/03 10:30:22;;;;;;;15.45;9.57;;;;;;;13.50;100.00;69902.09;5052122;28;20154;-54
2024/03/03 10:33:04;;;;;;;15.27;9.60;;;;;;;13.72;100.00;69927.25;5049716;28;20381;-51
2024/03/03 10:35:32;;;;;;;14.80;9.18;;;;;;;14.07;100.00;69971.69;5053134;28;20048;-52
2024/03/03 10:38:01;;;;;;;13.95;9.38;;;;;;;14.28;100.00;69991.03;5050155;28;20103;-54
2024/03/03 10:40:30;;;;;;;16.48;8.98;;;;;;;14.68;100.00;70036.72;5051225;28;20041;-51
2024/03/03 10:43:01;;;;;;;14.27;9.30;;;;;;;14.92;100.00;70063.63;5053644;28;20076;-51
2024/03/03 10:45:30;;;;;;;15.45;9.18;;;;;;;15.25;100.00;70101.09;5053507;28;20073;-48
2024/03/03 10:48:00;;;;;;;14.30;8.68;;;;;;;15.55;100.00;70137.72;5053773;28;20428;-53
2024/03/03 10:50:28;;;;;;;15.27;8.48;;;;;;;15.84;100.00;70165.28;5053568;28;20494;-50
2024/03/03 10:52:57;;;;;;;15.80;8.57;;;;;;;16.09;100.00;70201.28;5053845;28;20530;-53
2024/03/03 10:55:28;;;;;;;12.55;7.70;;;;;;;16.07;100.00;70193.69;5052083;28;20079;-51
2024/03/03 10:58:01;;;;;;;12.45;8.20;;;;;;;16.18;100.00;70209.22;5053558;28;20103;-51
2024/03/03 11:00:30;;;;;;;13.15;7.95;;;;;;;16.34;100.00;70227.38;5050678;28;20075;-53
2024/03/03 11:03:02;;;;;;;15.02;8.63;;;;;;;16.64;100.00;70261.97;5049855;28;20397;-52
2024/03/03 11:05:31;;;;;;;13.80;8.10;;;;;;;16.81;98.81;70278.69;5053355;28;20049;-52
2024/03/03 11:08:01;;;;;;;12.98;7.35;;;;;;;16.87;94.90;70285.13;5050899;28;20064;-53
2024/03/03 11:10:29;;;;;;;14.15;8.43;;;;;;;16.71;93.33;70270.19;5049806;28;20045;-52
2024/03/03 11:12:59;;;;;;;13.80;7.47;;;;;;;16.87;93.07;70282.50;5052532;28;20040;-53
2024/03/03 11:15:28;;;;;;;15.15;7.82;;;;;;;17.07;95.77;70310.66;5053143;28;20393;-52
2024/03/03 11:18:00;;;;;;;13.57;7.72;;;;;;;17.29;88.19;70333.25;5052905;28;20037;-52
2024/03/03 11:20:35;;;;;;;13.77;8.20;;;;;;;17.20;88.84;70328.53;5053252;28;20045;-52
2024/03/03 11:23:13;;;;;;;17.20;7.88;;;;;;;17.46;87.76;70354.66;5051707;28;20126;-52
2024/03/03 11:25:50;;;;;;;12.27;7.50;;;;;;;17.58;84.91;70366.09;5053037;28;20522;-51
2024/03/03 11:28:24;;;;;;;12.25;7.47;;;;;;;18.10;85.06;70428.00;5052797;28;20555;-52
2024/03/03 11:30:52;;;;;;;12.80;7.65;;;;;;;18.49;76.23;70469.41;5052634;28;20056;-53
2024/03/03 11:33:23;;;;;;;11.35;7.35;;;;;;;18.58;73.67;70482.59;5053130;28;20099;-51
2024/03/03 11:35:54;;;;;;;11.38;7.18;;;;;;;18.81;77.41;70509.03;5049937;28;20056;-51
2024/03/03 11:38:22;;;;;;;13.02;7.82;;;;;;;19.01;74.87;70531.94;5049783;28;20053;-52